sensor_id;sensor_type;location;lat;lon;timestamp;pressure;altitude;pressure_sealevel;temperature;humidity
77381;BME280;66439;50.106;10.996;2023-03-11T00:00:51;97052.00;;;3.00;62.87
77381;BME280;66439;50.106;10.996;2023-03-11T00:03:02;97062.89;;;2.97;64.79
77381;BME280;66439;50.106;10.996;2023-03-11T00:05:06;97065.77;;;2.95;64.80
77381;BME280;66439;50.106;10.996;2023-03-11T00:07:10;97071.04;;;2.94;64.29
77381;BME280;66439;50.106;10.996;2023-03-11T00:09:15;97082.92;;;2.91;63.82
77381;BME280;66439;50.106;10.996;2023-03-11T00:11:18;97096.31;;;2.90;63.89
77381;BME280;66439;50.106;10.996;2023-03-11T00:13:21;97094.27;;;2.88;63.21
77381;BME280;66439;50.106;10.996;2023-03-11T00:15:24;97107.77;;;2.89;63.42
77381;BME280;66439;50.106;10.996;2023-03-11T00:17:28;97103.78;;;2.92;63.60
77381;BME280;66439;50.106;10.996;2023-03-11T00:19:31;97120.24;;;2.94;63.09
77381;BME280;66439;50.106;10.996;2023-03-11T00:21:33;97122.85;;;2.92;63.08
77381;BME280;66439;50.106;10.996;2023-03-11T00:23:36;97119.99;;;2.91;63.13
77381;BME280;66439;50.106;10.996;2023-03-11T00:25:39;97143.36;;;2.90;62.76
77381;BME280;66439;50.106;10.996;2023-03-11T00:27:44;97144.79;;;2.85;62.61
77381;BME280;66439;50.106;10.996;2023-03-11T00:29:47;97150.22;;;2.83;62.65
77381;BME280;66439;50.106;10.996;2023-03-11T00:31:49;97145.31;;;2.81;62.91
77381;BME280;66439;50.106;10.996;2023-03-11T00:33:53;97158.14;;;2.80;63.11
77381;BME280;66439;50.106;10.996;2023-03-11T00:35:56;97158.97;;;2.84;63.32
77381;BME280;66439;50.106;10.996;2023-03-11T00:38:01;97157.58;;;2.85;63.23
77381;BME280;66439;50.106;10.996;2023-03-11T00:40:05;97178.59;;;2.88;63.26
77381;BME280;66439;50.106;10.996;2023-03-11T00:42:10;97179.43;;;2.90;62.68
77381;BME280;66439;50.106;10.996;2023-03-11T00:44:13;97189.46;;;2.88;62.84
77381;BME280;66439;50.106;10.996;2023-03-11T00:46:17;97182.02;;;2.86;62.82
77381;BME280;66439;50.106;10.996;2023-03-11T00:48:19;97184.75;;;2.85;63.16
77381;BME280;66439;50.106;10.996;2023-03-11T00:50:30;97190.52;;;2.87;63.12
77381;BME280;66439;50.106;10.996;2023-03-11T00:52:34;97195.88;;;2.88;63.36
77381;BME280;66439;50.106;10.996;2023-03-11T00:54:37;97205.61;;;2.91;63.02
77381;BME280;66439;50.106;10.996;2023-03-11T00:56:40;97208.33;;;2.91;63.18
77381;BME280;66439;50.106;10.996;2023-03-11T00:58:43;97216.05;;;2.95;63.19
77381;BME280;66439;50.106;10.996;2023-03-11T01:00:47;97218.79;;;2.93;62.92
77381;BME280;66439;50.106;10.996;2023-03-11T01:02:51;97222.60;;;2.92;62.90
77381;BME280;66439;50.106;10.996;2023-03-11T01:04:57;97225.55;;;2.89;62.63
77381;BME280;66439;50.106;10.996;2023-03-11T01:07:00;97231.34;;;2.87;62.87
77381;BME280;66439;50.106;10.996;2023-03-11T01:09:03;97232.14;;;2.85;62.72
77381;BME280;66439;50.106;10.996;2023-03-11T01:11:07;97239.16;;;2.83;62.99
77381;BME280;66439;50.106;10.996;2023-03-11T01:13:10;97238.27;;;2.85;63.01
77381;BME280;66439;50.106;10.996;2023-03-11T01:15:23;97257.95;;;2.86;62.75
77381;BME280;66439;50.106;10.996;2023-03-11T01:17:26;97252.86;;;2.86;62.92
77381;BME280;66439;50.106;10.996;2023-03-11T01:19:28;97261.41;;;2.80;62.33
77381;BME280;66439;50.106;10.996;2023-03-11T01:21:31;97255.23;;;2.77;62.86
77381;BME280;66439;50.106;10.996;2023-03-11T01:23:34;97263.10;;;2.77;62.84
77381;BME280;66439;50.106;10.996;2023-03-11T01:25:37;97261.53;;;2.74;62.81
77381;BME280;66439;50.106;10.996;2023-03-11T01:27:40;97264.61;;;2.75;63.15
77381;BME280;66439;50.106;10.996;2023-03-11T01:29:45;97268.48;;;2.74;62.97
77381;BME280;66439;50.106;10.996;2023-03-11T01:31:48;97265.55;;;2.72;63.01
77381;BME280;66439;50.106;10.996;2023-03-11T01:33:50;97264.32;;;2.72;63.18
77381;BME280;66439;50.106;10.996;2023-03-11T01:35:53;97268.90;;;2.75;63.41
77381;BME280;66439;50.106;10.996;2023-03-11T01:37:57;97269.05;;;2.80;63.14
77381;BME280;66439;50.106;10.996;2023-03-11T01:40:00;97276.52;;;2.84;63.32
77381;BME280;66439;50.106;10.996;2023-03-11T01:42:04;97277.59;;;2.87;63.23
77381;BME280;66439;50.106;10.996;2023-03-11T01:44:12;97283.02;;;2.90;63.51
77381;BME280;66439;50.106;10.996;2023-03-11T01:46:22;97289.98;;;2.95;63.50
77381;BME280;66439;50.106;10.996;2023-03-11T01:48:26;97294.98;;;2.94;63.12
77381;BME280;66439;50.106;10.996;2023-03-11T01:50:33;97298.84;;;2.89;63.34
77381;BME280;66439;50.106;10.996;2023-03-11T01:52:37;97299.60;;;2.89;63.29
77381;BME280;66439;50.106;10.996;2023-03-11T01:54:40;97309.02;;;2.89;63.66
77381;BME280;66439;50.106;10.996;2023-03-11T01:56:43;97311.22;;;2.92;63.86
77381;BME280;66439;50.106;10.996;2023-03-11T01:58:50;97311.20;;;2.96;63.90
77381;BME280;66439;50.106;10.996;2023-03-11T02:00:56;97317.41;;;2.96;63.77
77381;BME280;66439;50.106;10.996;2023-03-11T02:03:07;97323.46;;;2.88;63.48
77381;BME280;66439;50.106;10.996;2023-03-11T02:05:11;97315.77;;;2.80;63.68
77381;BME280;66439;50.106;10.996;2023-03-11T02:07:14;97323.66;;;2.78;63.95
77381;BME280;66439;50.106;10.996;2023-03-11T02:09:17;97317.61;;;2.81;64.22
77381;BME280;66439;50.106;10.996;2023-03-11T02:11:23;97324.92;;;2.82;64.23
77381;BME280;66439;50.106;10.996;2023-03-11T02:13:28;97327.72;;;2.78;64.26
77381;BME280;66439;50.106;10.996;2023-03-11T02:15:31;97337.35;;;2.71;64.10
77381;BME280;66439;50.106;10.996;2023-03-11T02:17:35;97332.95;;;2.62;64.33
77381;BME280;66439;50.106;10.996;2023-03-11T02:22:15;97330.96;;;2.53;64.89
77381;BME280;66439;50.106;10.996;2023-03-11T02:24:23;97329.67;;;2.54;65.06
77381;BME280;66439;50.106;10.996;2023-03-11T02:26:34;97331.12;;;2.57;64.87
77381;BME280;66439;50.106;10.996;2023-03-11T02:28:39;97333.65;;;2.57;64.88
77381;BME280;66439;50.106;10.996;2023-03-11T02:30:44;97330.69;;;2.60;65.21
77381;BME280;66439;50.106;10.996;2023-03-11T02:32:49;97333.86;;;2.65;65.38
77381;BME280;66439;50.106;10.996;2023-03-11T02:34:55;97338.34;;;2.67;65.44
77381;BME280;66439;50.106;10.996;2023-03-11T02:36:59;97339.56;;;2.67;65.53
77381;BME280;66439;50.106;10.996;2023-03-11T02:39:03;97346.84;;;2.63;65.57
77381;BME280;66439;50.106;10.996;2023-03-11T02:41:06;97347.21;;;2.58;65.95
77381;BME280;66439;50.106;10.996;2023-03-11T02:43:12;97356.95;;;2.60;66.19
77381;BME280;66439;50.106;10.996;2023-03-11T02:45:17;97360.11;;;2.62;66.33
77381;BME280;66439;50.106;10.996;2023-03-11T02:47:22;97369.34;;;2.64;66.59
77381;BME280;66439;50.106;10.996;2023-03-11T02:49:25;97373.23;;;2.65;66.55
77381;BME280;66439;50.106;10.996;2023-03-11T02:51:29;97376.42;;;2.61;66.54
77381;BME280;66439;50.106;10.996;2023-03-11T02:53:38;97375.50;;;2.57;66.78
77381;BME280;66439;50.106;10.996;2023-03-11T02:55:43;97374.66;;;2.53;67.09
77381;BME280;66439;50.106;10.996;2023-03-11T02:57:48;97391.67;;;2.50;67.24
77381;BME280;66439;50.106;10.996;2023-03-11T02:59:51;97383.88;;;2.42;67.33
77381;BME280;66439;50.106;10.996;2023-03-11T03:01:54;97382.36;;;2.45;67.60
77381;BME280;66439;50.106;10.996;2023-03-11T03:03:57;97380.89;;;2.51;67.84
77381;BME280;66439;50.106;10.996;2023-03-11T03:06:00;97378.81;;;2.60;67.85
77381;BME280;66439;50.106;10.996;2023-03-11T03:08:04;97381.95;;;2.63;67.93
77381;BME280;66439;50.106;10.996;2023-03-11T03:10:08;97381.70;;;2.62;67.90
77381;BME280;66439;50.106;10.996;2023-03-11T03:12:11;97387.44;;;2.63;67.81
77381;BME280;66439;50.106;10.996;2023-03-11T03:14:13;97389.17;;;2.61;67.99
77381;BME280;66439;50.106;10.996;2023-03-11T03:16:16;97392.14;;;2.64;67.95
77381;BME280;66439;50.106;10.996;2023-03-11T03:18:19;97398.45;;;2.68;67.99
77381;BME280;66439;50.106;10.996;2023-03-11T03:20:22;97395.71;;;2.70;67.92
77381;BME280;66439;50.106;10.996;2023-03-11T03:22:28;97400.21;;;2.71;67.62
77381;BME280;66439;50.106;10.996;2023-03-11T03:24:31;97410.39;;;2.64;67.28
77381;BME280;66439;50.106;10.996;2023-03-11T03:26:36;97411.80;;;2.62;67.59
77381;BME280;66439;50.106;10.996;2023-03-11T03:28:41;97413.63;;;2.63;67.54
77381;BME280;66439;50.106;10.996;2023-03-11T03:30:44;97415.66;;;2.63;67.64
77381;BME280;66439;50.106;10.996;2023-03-11T03:32:47;97422.08;;;2.64;67.32
77381;BME280;66439;50.106;10.996;2023-03-11T03:34:51;97426.09;;;2.61;67.25
77381;BME280;66439;50.106;10.996;2023-03-11T03:37:05;97424.96;;;2.60;67.34
77381;BME280;66439;50.106;10.996;2023-03-11T03:39:11;97424.13;;;2.63;67.10
77381;BME280;66439;50.106;10.996;2023-03-11T03:41:14;97429.37;;;2.60;66.97
77381;BME280;66439;50.106;10.996;2023-03-11T03:43:17;97432.77;;;2.58;67.02
77381;BME280;66439;50.106;10.996;2023-03-11T03:45:20;97435.14;;;2.55;67.12
77381;BME280;66439;50.106;10.996;2023-03-11T03:47:24;97429.54;;;2.50;67.12
77381;BME280;66439;50.106;10.996;2023-03-11T03:49:27;97433.16;;;2.49;67.10
77381;BME280;66439;50.106;10.996;2023-03-11T03:51:30;97436.81;;;2.48;67.14
77381;BME280;66439;50.106;10.996;2023-03-11T03:53:44;97441.83;;;2.48;67.22
77381;BME280;66439;50.106;10.996;2023-03-11T03:55:50;97446.55;;;2.48;67.29
77381;BME280;66439;50.106;10.996;2023-03-11T03:57:53;97449.27;;;2.45;66.99
77381;BME280;66439;50.106;10.996;2023-03-11T03:59:58;97453.98;;;2.37;67.00
77381;BME280;66439;50.106;10.996;2023-03-11T04:02:01;97461.74;;;2.30;67.06
77381;BME280;66439;50.106;10.996;2023-03-11T04:04:04;97460.08;;;2.21;67.28
77381;BME280;66439;50.106;10.996;2023-03-11T04:08:12;97474.31;;;2.13;67.62
77381;BME280;66439;50.106;10.996;2023-03-11T04:10:15;97476.44;;;2.10;67.81
77381;BME280;66439;50.106;10.996;2023-03-11T04:12:19;97482.50;;;2.10;68.00
77381;BME280;66439;50.106;10.996;2023-03-11T04:14:22;97486.98;;;2.14;68.05
77381;BME280;66439;50.106;10.996;2023-03-11T04:16:28;97496.73;;;2.19;68.33
77381;BME280;66439;50.106;10.996;2023-03-11T04:18:35;97502.98;;;2.24;68.05
77381;BME280;66439;50.106;10.996;2023-03-11T04:20:40;97503.52;;;2.27;68.58
77381;BME280;66439;50.106;10.996;2023-03-11T04:22:43;97508.80;;;2.31;68.68
77381;BME280;66439;50.106;10.996;2023-03-11T04:24:46;97509.14;;;2.35;68.87
77381;BME280;66439;50.106;10.996;2023-03-11T04:26:49;97508.92;;;2.33;68.73
77381;BME280;66439;50.106;10.996;2023-03-11T04:28:52;97511.59;;;2.33;68.80
77381;BME280;66439;50.106;10.996;2023-03-11T04:30:55;97515.41;;;2.35;68.94
77381;BME280;66439;50.106;10.996;2023-03-11T04:32:59;97511.13;;;2.35;69.10
77381;BME280;66439;50.106;10.996;2023-03-11T04:35:04;97515.59;;;2.38;69.10
77381;BME280;66439;50.106;10.996;2023-03-11T04:37:07;97514.87;;;2.38;69.02
77381;BME280;66439;50.106;10.996;2023-03-11T04:39:11;97513.27;;;2.37;68.95
77381;BME280;66439;50.106;10.996;2023-03-11T04:41:16;97516.64;;;2.31;68.61
77381;BME280;66439;50.106;10.996;2023-03-11T04:43:19;97520.52;;;2.28;68.76
77381;BME280;66439;50.106;10.996;2023-03-11T04:45:22;97515.77;;;2.25;68.84
77381;BME280;66439;50.106;10.996;2023-03-11T04:47:27;97529.98;;;2.24;68.59
77381;BME280;66439;50.106;10.996;2023-03-11T04:49:29;97538.95;;;2.22;68.58
77381;BME280;66439;50.106;10.996;2023-03-11T04:51:32;97539.14;;;2.22;68.67
77381;BME280;66439;50.106;10.996;2023-03-11T04:53:35;97539.23;;;2.22;69.27
77381;BME280;66439;50.106;10.996;2023-03-11T04:55:38;97550.18;;;2.20;69.56
77381;BME280;66439;50.106;10.996;2023-03-11T04:57:42;97547.33;;;2.17;69.82
77381;BME280;66439;50.106;10.996;2023-03-11T04:59:46;97550.01;;;2.15;69.64
77381;BME280;66439;50.106;10.996;2023-03-11T05:01:49;97548.86;;;2.10;69.38
77381;BME280;66439;50.106;10.996;2023-03-11T05:03:53;97551.34;;;2.05;69.30
77381;BME280;66439;50.106;10.996;2023-03-11T05:05:57;97548.90;;;2.03;69.32
77381;BME280;66439;50.106;10.996;2023-03-11T05:08:02;97553.47;;;2.04;69.02
77381;BME280;66439;50.106;10.996;2023-03-11T05:10:05;97551.42;;;2.01;68.69
77381;BME280;66439;50.106;10.996;2023-03-11T05:12:11;97555.41;;;2.00;68.69
77381;BME280;66439;50.106;10.996;2023-03-11T05:14:15;97561.31;;;1.99;68.47
77381;BME280;66439;50.106;10.996;2023-03-11T05:16:17;97567.95;;;1.99;68.44
77381;BME280;66439;50.106;10.996;2023-03-11T05:18:20;97574.50;;;1.99;68.45
77381;BME280;66439;50.106;10.996;2023-03-11T05:20:24;97575.82;;;2.00;68.38
77381;BME280;66439;50.106;10.996;2023-03-11T05:22:27;97578.48;;;2.01;68.16
77381;BME280;66439;50.106;10.996;2023-03-11T05:24:30;97582.75;;;2.06;68.12
77381;BME280;66439;50.106;10.996;2023-03-11T05:26:33;97583.73;;;2.10;68.05
77381;BME280;66439;50.106;10.996;2023-03-11T05:28:36;97586.94;;;2.16;68.23
77381;BME280;66439;50.106;10.996;2023-03-11T05:30:40;97593.28;;;2.22;68.24
77381;BME280;66439;50.106;10.996;2023-03-11T05:32:43;97594.09;;;2.26;68.15
77381;BME280;66439;50.106;10.996;2023-03-11T05:34:46;97597.38;;;2.32;68.26
77381;BME280;66439;50.106;10.996;2023-03-11T05:36:50;97598.08;;;2.35;67.74
77381;BME280;66439;50.106;10.996;2023-03-11T05:38:53;97601.66;;;2.37;67.44
77381;BME280;66439;50.106;10.996;2023-03-11T05:40:56;97598.07;;;2.40;67.70
77381;BME280;66439;50.106;10.996;2023-03-11T05:42:59;97598.95;;;2.43;68.28
77381;BME280;66439;50.106;10.996;2023-03-11T05:45:04;97597.08;;;2.48;68.45
77381;BME280;66439;50.106;10.996;2023-03-11T05:47:07;97596.46;;;2.51;68.13
77381;BME280;66439;50.106;10.996;2023-03-11T05:49:10;97596.46;;;2.54;68.07
77381;BME280;66439;50.106;10.996;2023-03-11T05:51:13;97598.34;;;2.54;67.60
77381;BME280;66439;50.106;10.996;2023-03-11T05:53:16;97595.38;;;2.51;66.93
77381;BME280;66439;50.106;10.996;2023-03-11T05:55:19;97596.20;;;2.51;67.45
77381;BME280;66439;50.106;10.996;2023-03-11T05:57:22;97600.17;;;2.52;67.10
77381;BME280;66439;50.106;10.996;2023-03-11T05:59:25;97600.30;;;2.52;67.16
77381;BME280;66439;50.106;10.996;2023-03-11T06:01:31;97598.98;;;2.55;67.45
77381;BME280;66439;50.106;10.996;2023-03-11T06:03:36;97604.44;;;2.55;67.04
77381;BME280;66439;50.106;10.996;2023-03-11T06:05:46;97606.28;;;2.55;66.91
77381;BME280;66439;50.106;10.996;2023-03-11T06:07:49;97613.52;;;2.56;67.25
77381;BME280;66439;50.106;10.996;2023-03-11T06:10:00;97618.72;;;2.58;67.06
77381;BME280;66439;50.106;10.996;2023-03-11T06:12:04;97619.92;;;2.59;66.81
77381;BME280;66439;50.106;10.996;2023-03-11T06:14:19;97625.18;;;2.63;66.90
77381;BME280;66439;50.106;10.996;2023-03-11T06:16:24;97628.54;;;2.68;66.44
77381;BME280;66439;50.106;10.996;2023-03-11T06:18:33;97633.34;;;2.73;66.36
77381;BME280;66439;50.106;10.996;2023-03-11T06:20:37;97635.27;;;2.76;65.99
77381;BME280;66439;50.106;10.996;2023-03-11T06:22:39;97636.49;;;2.79;66.25
77381;BME280;66439;50.106;10.996;2023-03-11T06:24:42;97637.36;;;2.82;66.02
77381;BME280;66439;50.106;10.996;2023-03-11T06:26:50;97637.20;;;2.84;65.50
77381;BME280;66439;50.106;10.996;2023-03-11T06:28:53;97645.27;;;2.85;65.16
77381;BME280;66439;50.106;10.996;2023-03-11T06:30:56;97645.34;;;2.86;64.87
77381;BME280;66439;50.106;10.996;2023-03-11T06:33:07;97650.56;;;2.87;64.52
77381;BME280;66439;50.106;10.996;2023-03-11T06:35:10;97647.88;;;2.85;64.25
77381;BME280;66439;50.106;10.996;2023-03-11T06:37:13;97653.67;;;2.85;64.19
77381;BME280;66439;50.106;10.996;2023-03-11T06:39:16;97659.13;;;2.85;64.07
77381;BME280;66439;50.106;10.996;2023-03-11T06:41:20;97663.55;;;2.85;63.84
77381;BME280;66439;50.106;10.996;2023-03-11T06:43:23;97666.63;;;2.87;63.99
77381;BME280;66439;50.106;10.996;2023-03-11T06:45:27;97666.86;;;2.88;63.77
77381;BME280;66439;50.106;10.996;2023-03-11T06:47:30;97669.55;;;2.87;63.54
77381;BME280;66439;50.106;10.996;2023-03-11T06:49:34;97670.46;;;2.84;62.91
77381;BME280;66439;50.106;10.996;2023-03-11T06:51:38;97677.97;;;2.81;62.68
77381;BME280;66439;50.106;10.996;2023-03-11T06:53:41;97679.87;;;2.79;62.73
77381;BME280;66439;50.106;10.996;2023-03-11T06:55:45;97689.44;;;2.78;62.57
77381;BME280;66439;50.106;10.996;2023-03-11T06:57:48;97691.44;;;2.77;62.82
77381;BME280;66439;50.106;10.996;2023-03-11T06:59:51;97695.97;;;2.79;62.86
77381;BME280;66439;50.106;10.996;2023-03-11T07:01:57;97695.91;;;2.81;62.88
77381;BME280;66439;50.106;10.996;2023-03-11T07:04:00;97698.80;;;2.82;62.76
77381;BME280;66439;50.106;10.996;2023-03-11T07:06:05;97698.63;;;2.82;62.68
77381;BME280;66439;50.106;10.996;2023-03-11T07:08:08;97701.27;;;2.83;62.72
77381;BME280;66439;50.106;10.996;2023-03-11T07:10:11;97703.94;;;2.83;62.46
77381;BME280;66439;50.106;10.996;2023-03-11T07:12:16;97707.06;;;2.82;62.17
77381;BME280;66439;50.106;10.996;2023-03-11T07:14:19;97708.02;;;2.76;61.34
77381;BME280;66439;50.106;10.996;2023-03-11T07:16:26;97709.20;;;2.73;62.01
77381;BME280;66439;50.106;10.996;2023-03-11T07:18:35;97715.09;;;2.77;62.42
77381;BME280;66439;50.106;10.996;2023-03-11T07:20:39;97720.55;;;2.80;62.51
77381;BME280;66439;50.106;10.996;2023-03-11T07:22:42;97723.07;;;2.81;62.06
77381;BME280;66439;50.106;10.996;2023-03-11T07:24:46;97727.62;;;2.81;61.62
77381;BME280;66439;50.106;10.996;2023-03-11T07:26:48;97730.95;;;2.77;61.39
77381;BME280;66439;50.106;10.996;2023-03-11T07:28:54;97736.25;;;2.74;60.92
77381;BME280;66439;50.106;10.996;2023-03-11T07:30:57;97740.27;;;2.72;60.94
77381;BME280;66439;50.106;10.996;2023-03-11T07:33:00;97747.04;;;2.72;61.13
77381;BME280;66439;50.106;10.996;2023-03-11T07:35:04;97746.28;;;2.73;60.98
77381;BME280;66439;50.106;10.996;2023-03-11T07:37:07;97757.31;;;2.73;60.83
77381;BME280;66439;50.106;10.996;2023-03-11T07:39:13;97757.70;;;2.73;60.95
77381;BME280;66439;50.106;10.996;2023-03-11T07:41:17;97765.11;;;2.73;60.80
77381;BME280;66439;50.106;10.996;2023-03-11T07:43:22;97765.27;;;2.72;60.43
77381;BME280;66439;50.106;10.996;2023-03-11T07:45:24;97761.50;;;2.70;60.20
77381;BME280;66439;50.106;10.996;2023-03-11T07:47:28;97759.60;;;2.66;59.98
77381;BME280;66439;50.106;10.996;2023-03-11T07:49:32;97758.73;;;2.62;60.03
77381;BME280;66439;50.106;10.996;2023-03-11T07:51:36;97760.86;;;2.62;60.24
77381;BME280;66439;50.106;10.996;2023-03-11T07:53:39;97763.64;;;2.61;59.76
77381;BME280;66439;50.106;10.996;2023-03-11T07:55:42;97765.91;;;2.61;59.91
77381;BME280;66439;50.106;10.996;2023-03-11T07:57:48;97769.31;;;2.66;60.64
77381;BME280;66439;50.106;10.996;2023-03-11T07:59:51;97777.28;;;2.73;60.81
77381;BME280;66439;50.106;10.996;2023-03-11T08:01:56;97783.23;;;2.78;60.60
77381;BME280;66439;50.106;10.996;2023-03-11T08:03:59;97782.57;;;2.82;60.69
77381;BME280;66439;50.106;10.996;2023-03-11T08:06:02;97792.59;;;2.85;60.28
77381;BME280;66439;50.106;10.996;2023-03-11T08:08:07;97794.94;;;2.90;60.49
77381;BME280;66439;50.106;10.996;2023-03-11T08:10:10;97800.02;;;2.97;60.64
77381;BME280;66439;50.106;10.996;2023-03-11T08:12:14;97802.36;;;3.00;59.97
77381;BME280;66439;50.106;10.996;2023-03-11T08:14:17;97809.21;;;3.02;60.22
77381;BME280;66439;50.106;10.996;2023-03-11T08:16:21;97808.05;;;3.03;59.94
77381;BME280;66439;50.106;10.996;2023-03-11T08:18:24;97808.27;;;3.01;59.74
77381;BME280;66439;50.106;10.996;2023-03-11T08:20:26;97811.83;;;3.03;60.03
77381;BME280;66439;50.106;10.996;2023-03-11T08:22:32;97819.80;;;3.03;59.76
77381;BME280;66439;50.106;10.996;2023-03-11T08:24:37;97818.64;;;3.01;59.64
77381;BME280;66439;50.106;10.996;2023-03-11T08:26:42;97823.00;;;2.99;59.49
77381;BME280;66439;50.106;10.996;2023-03-11T08:28:47;97824.77;;;2.98;59.75
77381;BME280;66439;50.106;10.996;2023-03-11T08:30:50;97829.77;;;3.00;59.97
77381;BME280;66439;50.106;10.996;2023-03-11T08:32:54;97833.27;;;3.00;59.21
77381;BME280;66439;50.106;10.996;2023-03-11T08:34:58;97834.85;;;3.00;59.06
77381;BME280;66439;50.106;10.996;2023-03-11T08:37:01;97831.73;;;3.00;58.66
77381;BME280;66439;50.106;10.996;2023-03-11T08:39:04;97835.71;;;3.00;58.52
77381;BME280;66439;50.106;10.996;2023-03-11T08:41:07;97836.02;;;3.00;58.30
77381;BME280;66439;50.106;10.996;2023-03-11T08:43:12;97836.70;;;2.97;57.90
77381;BME280;66439;50.106;10.996;2023-03-11T08:45:17;97841.77;;;2.97;58.08
77381;BME280;66439;50.106;10.996;2023-03-11T08:47:21;97846.40;;;3.01;58.93
77381;BME280;66439;50.106;10.996;2023-03-11T08:49:25;97855.79;;;3.07;58.94
77381;BME280;66439;50.106;10.996;2023-03-11T08:51:31;97854.65;;;3.10;58.16
77381;BME280;66439;50.106;10.996;2023-03-11T08:53:34;97853.89;;;3.09;58.03
77381;BME280;66439;50.106;10.996;2023-03-11T08:55:39;97860.40;;;3.10;58.19
77381;BME280;66439;50.106;10.996;2023-03-11T08:57:41;97865.19;;;3.15;58.63
77381;BME280;66439;50.106;10.996;2023-03-11T08:59:44;97864.71;;;3.14;58.21
77381;BME280;66439;50.106;10.996;2023-03-11T09:01:47;97861.70;;;3.11;57.77
77381;BME280;66439;50.106;10.996;2023-03-11T09:03:50;97866.88;;;3.10;57.60
77381;BME280;66439;50.106;10.996;2023-03-11T09:05:58;97876.53;;;3.10;57.54
77381;BME280;66439;50.106;10.996;2023-03-11T09:08:02;97881.73;;;3.10;57.62
77381;BME280;66439;50.106;10.996;2023-03-11T09:10:08;97880.36;;;3.12;58.02
77381;BME280;66439;50.106;10.996;2023-03-11T09:12:10;97881.83;;;3.14;58.24
77381;BME280;66439;50.106;10.996;2023-03-11T09:14:15;97883.60;;;3.18;58.34
77381;BME280;66439;50.106;10.996;2023-03-11T09:16:22;97886.85;;;3.19;58.05
77381;BME280;66439;50.106;10.996;2023-03-11T09:18:25;97891.41;;;3.20;57.75
77381;BME280;66439;50.106;10.996;2023-03-11T09:20:29;97891.09;;;3.18;57.45
77381;BME280;66439;50.106;10.996;2023-03-11T09:22:32;97896.58;;;3.19;57.41
77381;BME280;66439;50.106;10.996;2023-03-11T09:24:35;97894.80;;;3.20;57.82
77381;BME280;66439;50.106;10.996;2023-03-11T09:26:37;97893.44;;;3.24;57.86
77381;BME280;66439;50.106;10.996;2023-03-11T09:28:41;97899.40;;;3.26;57.72
77381;BME280;66439;50.106;10.996;2023-03-11T09:30:44;97900.98;;;3.27;57.68
77381;BME280;66439;50.106;10.996;2023-03-11T09:32:47;97899.11;;;3.29;57.66
77381;BME280;66439;50.106;10.996;2023-03-11T09:34:50;97898.13;;;3.29;57.40
77381;BME280;66439;50.106;10.996;2023-03-11T09:36:53;97903.08;;;3.27;56.76
77381;BME280;66439;50.106;10.996;2023-03-11T09:38:56;97900.20;;;3.28;57.24
77381;BME280;66439;50.106;10.996;2023-03-11T09:45:25;97912.23;;;3.53;57.88
77381;BME280;66439;50.106;10.996;2023-03-11T09:47:37;97918.23;;;3.62;58.10
77381;BME280;66439;50.106;10.996;2023-03-11T09:52:13;97923.95;;;3.61;57.70
77381;BME280;66439;50.106;10.996;2023-03-11T09:54:17;97927.38;;;3.55;57.22
77381;BME280;66439;50.106;10.996;2023-03-11T09:56:21;97931.05;;;3.50;57.24
77381;BME280;66439;50.106;10.996;2023-03-11T09:58:38;97927.29;;;3.44;57.54
77381;BME280;66439;50.106;10.996;2023-03-11T10:00:43;97928.84;;;3.39;57.01
77381;BME280;66439;50.106;10.996;2023-03-11T10:02:46;97935.02;;;3.35;57.10
77381;BME280;66439;50.106;10.996;2023-03-11T10:05:14;97940.34;;;3.33;57.28
77381;BME280;66439;50.106;10.996;2023-03-11T10:07:26;97943.52;;;3.32;57.27
77381;BME280;66439;50.106;10.996;2023-03-11T10:16:55;97953.11;;;3.33;57.55
77381;BME280;66439;50.106;10.996;2023-03-11T10:19:10;97952.05;;;3.36;57.72
77381;BME280;66439;50.106;10.996;2023-03-11T10:24:12;97945.36;;;3.34;56.16
77381;BME280;66439;50.106;10.996;2023-03-11T10:26:25;97946.52;;;3.34;56.31
77381;BME280;66439;50.106;10.996;2023-03-11T10:28:50;97947.63;;;3.35;55.78
77381;BME280;66439;50.106;10.996;2023-03-11T10:31:02;97948.24;;;3.38;55.36
77381;BME280;66439;50.106;10.996;2023-03-11T10:33:34;97952.08;;;3.42;55.43
77381;BME280;66439;50.106;10.996;2023-03-11T10:35:40;97952.46;;;3.43;54.75
77381;BME280;66439;50.106;10.996;2023-03-11T10:37:52;97950.90;;;3.45;55.06
77381;BME280;66439;50.106;10.996;2023-03-11T10:40:01;97954.51;;;3.51;55.58
77381;BME280;66439;50.106;10.996;2023-03-11T10:42:12;97956.13;;;3.55;54.87
77381;BME280;66439;50.106;10.996;2023-03-11T10:44:24;97959.05;;;3.55;53.69
77381;BME280;66439;50.106;10.996;2023-03-11T10:46:28;97959.73;;;3.57;54.21
77381;BME280;66439;50.106;10.996;2023-03-11T10:48:31;97955.62;;;3.56;53.72
77381;BME280;66439;50.106;10.996;2023-03-11T10:50:46;97955.05;;;3.54;53.15
77381;BME280;66439;50.106;10.996;2023-03-11T10:53:18;97958.02;;;3.52;53.36
77381;BME280;66439;50.106;10.996;2023-03-11T10:55:25;97957.20;;;3.51;53.22
77381;BME280;66439;50.106;10.996;2023-03-11T10:57:34;97958.66;;;3.54;53.37
77381;BME280;66439;50.106;10.996;2023-03-11T10:59:51;97959.06;;;3.59;53.22
77381;BME280;66439;50.106;10.996;2023-03-11T11:01:59;97968.50;;;3.59;52.72
77381;BME280;66439;50.106;10.996;2023-03-11T11:04:02;97971.75;;;3.58;52.47
77381;BME280;66439;50.106;10.996;2023-03-11T11:06:06;97974.52;;;3.58;52.18
77381;BME280;66439;50.106;10.996;2023-03-11T11:08:21;97977.83;;;3.59;52.53
77381;BME280;66439;50.106;10.996;2023-03-11T11:10:26;97987.89;;;3.60;52.65
77381;BME280;66439;50.106;10.996;2023-03-11T11:12:29;97996.20;;;3.55;53.03
77381;BME280;66439;50.106;10.996;2023-03-11T11:14:46;97995.68;;;3.50;53.27
77381;BME280;66439;50.106;10.996;2023-03-11T11:16:50;97992.27;;;3.49;54.10
77381;BME280;66439;50.106;10.996;2023-03-11T11:21:07;97995.18;;;3.53;54.80
77381;BME280;66439;50.106;10.996;2023-03-11T11:23:46;97996.42;;;3.53;54.66
77381;BME280;66439;50.106;10.996;2023-03-11T11:25:56;97990.48;;;3.53;54.85